sensor_id;sensor_type;location;lat;lon;timestamp;P1;durP1;ratioP1;P2;durP2;ratioP2
8536;SDS011;4306;50.210;10.628;2023-08-07T00:01:46;0.30;;;0.20;;
8536;SDS011;4306;50.210;10.628;2023-08-07T00:04:13;0.45;;;0.30;;
8536;SDS011;4306;50.210;10.628;2023-08-07T00:06:40;0.20;;;0.20;;
8536;SDS011;4306;50.210;10.628;2023-08-07T00:09:08;0.20;;;0.20;;
8536;SDS011;4306;50.210;10.628;2023-08-07T00:11:35;0.20;;;0.15;;
8536;SDS011;4306;50.210;10.628;2023-08-07T00:14:02;0.10;;;0.10;;
8536;SDS011;4306;50.210;10.628;2023-08-07T00:16:29;0.20;;;0.20;;
8536;SDS011;4306;50.210;10.628;2023-08-07T00:18:55;0.55;;;0.20;;
8536;SDS011;4306;50.210;10.628;2023-08-07T00:21:23;0.10;;;0.10;;
8536;SDS011;4306;50.210;10.628;2023-08-07T00:23:50;0.03;;;0.03;;
8536;SDS011;4306;50.210;10.628;2023-08-07T00:26:18;0.98;;;0.40;;
8536;SDS011;4306;50.210;10.628;2023-08-07T00:28:45;0.60;;;0.20;;
8536;SDS011;4306;50.210;10.628;2023-08-07T00:31:12;0.30;;;0.20;;
8536;SDS011;4306;50.210;10.628;2023-08-07T00:33:39;0.30;;;0.20;;
8536;SDS011;4306;50.210;10.628;2023-08-07T00:36:05;0.20;;;0.20;;
8536;SDS011;4306;50.210;10.628;2023-08-07T00:38:34;1.45;;;0.20;;
8536;SDS011;4306;50.210;10.628;2023-08-07T00:41:01;0.28;;;0.13;;
8536;SDS011;4306;50.210;10.628;2023-08-07T00:43:29;0.38;;;0.30;;
8536;SDS011;4306;50.210;10.628;2023-08-07T00:45:56;0.20;;;0.20;;
8536;SDS011;4306;50.210;10.628;2023-08-07T00:48:23;1.17;;;0.40;;
8536;SDS011;4306;50.210;10.628;2023-08-07T00:50:50;0.90;;;0.20;;
8536;SDS011;4306;50.210;10.628;2023-08-07T00:53:18;0.20;;;0.20;;
8536;SDS011;4306;50.210;10.628;2023-08-07T00:55:45;0.73;;;0.30;;
8536;SDS011;4306;50.210;10.628;2023-08-07T00:58:12;0.30;;;0.30;;
8536;SDS011;4306;50.210;10.628;2023-08-07T01:00:41;0.17;;;0.10;;
8536;SDS011;4306;50.210;10.628;2023-08-07T01:03:08;0.30;;;0.30;;
8536;SDS011;4306;50.210;10.628;2023-08-07T01:05:36;0.43;;;0.43;;
8536;SDS011;4306;50.210;10.628;2023-08-07T01:08:03;0.20;;;0.20;;
8536;SDS011;4306;50.210;10.628;2023-08-07T01:10:33;0.20;;;0.20;;
8536;SDS011;4306;50.210;10.628;2023-08-07T01:13:12;1.30;;;0.40;;
8536;SDS011;4306;50.210;10.628;2023-08-07T01:15:45;0.63;;;0.50;;
8536;SDS011;4306;50.210;10.628;2023-08-07T01:18:15;0.40;;;0.40;;
8536;SDS011;4306;50.210;10.628;2023-08-07T01:20:43;0.50;;;0.50;;
8536;SDS011;4306;50.210;10.628;2023-08-07T01:23:11;0.85;;;0.50;;
8536;SDS011;4306;50.210;10.628;2023-08-07T01:25:38;0.43;;;0.43;;
8536;SDS011;4306;50.210;10.628;2023-08-07T01:28:06;0.70;;;0.57;;
8536;SDS011;4306;50.210;10.628;2023-08-07T01:30:42;0.52;;;0.47;;
8536;SDS011;4306;50.210;10.628;2023-08-07T01:33:15;0.77;;;0.60;;
8536;SDS011;4306;50.210;10.628;2023-08-07T01:35:47;0.93;;;0.60;;
8536;SDS011;4306;50.210;10.628;2023-08-07T01:38:19;0.77;;;0.60;;
8536;SDS011;4306;50.210;10.628;2023-08-07T01:40:50;0.85;;;0.68;;
8536;SDS011;4306;50.210;10.628;2023-08-07T01:43:18;0.47;;;0.47;;
8536;SDS011;4306;50.210;10.628;2023-08-07T01:45:45;0.63;;;0.60;;
8536;SDS011;4306;50.210;10.628;2023-08-07T01:48:12;0.80;;;0.57;;
8536;SDS011;4306;50.210;10.628;2023-08-07T01:50:39;0.93;;;0.55;;
8536;SDS011;4306;50.210;10.628;2023-08-07T01:53:06;0.50;;;0.50;;
8536;SDS011;4306;50.210;10.628;2023-08-07T01:55:34;0.57;;;0.57;;
8536;SDS011;4306;50.210;10.628;2023-08-07T01:58:01;0.55;;;0.43;;
8536;SDS011;4306;50.210;10.628;2023-08-07T02:00:28;0.47;;;0.40;;
8536;SDS011;4306;50.210;10.628;2023-08-07T02:02:55;0.40;;;0.40;;
8536;SDS011;4306;50.210;10.628;2023-08-07T02:05:22;0.40;;;0.40;;
8536;SDS011;4306;50.210;10.628;2023-08-07T02:07:48;0.22;;;0.22;;
8536;SDS011;4306;50.210;10.628;2023-08-07T02:10:15;0.52;;;0.47;;
8536;SDS011;4306;50.210;10.628;2023-08-07T02:12:43;0.50;;;0.50;;
8536;SDS011;4306;50.210;10.628;2023-08-07T02:15:10;0.63;;;0.50;;
8536;SDS011;4306;50.210;10.628;2023-08-07T02:17:37;1.85;;;0.50;;
8536;SDS011;4306;50.210;10.628;2023-08-07T02:20:06;1.52;;;0.68;;
8536;SDS011;4306;50.210;10.628;2023-08-07T02:22:34;0.82;;;0.50;;
8536;SDS011;4306;50.210;10.628;2023-08-07T02:25:00;0.95;;;0.50;;
8536;SDS011;4306;50.210;10.628;2023-08-07T02:27:27;1.00;;;0.70;;
8536;SDS011;4306;50.210;10.628;2023-08-07T02:29:55;0.60;;;0.60;;
8536;SDS011;4306;50.210;10.628;2023-08-07T02:32:22;3.08;;;0.80;;
8536;SDS011;4306;50.210;10.628;2023-08-07T02:34:48;2.00;;;0.65;;
8536;SDS011;4306;50.210;10.628;2023-08-07T02:37:15;0.80;;;0.70;;
8536;SDS011;4306;50.210;10.628;2023-08-07T02:39:42;1.08;;;0.80;;
8536;SDS011;4306;50.210;10.628;2023-08-07T02:42:09;3.55;;;0.90;;
8536;SDS011;4306;50.210;10.628;2023-08-07T02:44:36;1.85;;;0.90;;
8536;SDS011;4306;50.210;10.628;2023-08-07T02:47:04;0.93;;;0.70;;
8536;SDS011;4306;50.210;10.628;2023-08-07T02:49:32;1.40;;;1.10;;
8536;SDS011;4306;50.210;10.628;2023-08-07T02:51:58;0.65;;;0.63;;
8536;SDS011;4306;50.210;10.628;2023-08-07T02:54:26;0.98;;;0.80;;
8536;SDS011;4306;50.210;10.628;2023-08-07T02:56:52;0.77;;;0.60;;
8536;SDS011;4306;50.210;10.628;2023-08-07T02:59:19;1.15;;;0.90;;
8536;SDS011;4306;50.210;10.628;2023-08-07T03:01:46;0.88;;;0.70;;
8536;SDS011;4306;50.210;10.628;2023-08-07T03:04:14;1.90;;;0.70;;
8536;SDS011;4306;50.210;10.628;2023-08-07T03:06:41;1.10;;;0.77;;
8536;SDS011;4306;50.210;10.628;2023-08-07T03:09:08;0.63;;;0.63;;
8536;SDS011;4306;50.210;10.628;2023-08-07T03:11:35;1.27;;;0.80;;
8536;SDS011;4306;50.210;10.628;2023-08-07T03:14:02;1.48;;;0.77;;
8536;SDS011;4306;50.210;10.628;2023-08-07T03:16:29;0.93;;;0.70;;
8536;SDS011;4306;50.210;10.628;2023-08-07T03:18:56;1.90;;;0.80;;
8536;SDS011;4306;50.210;10.628;2023-08-07T03:21:24;0.60;;;0.60;;
8536;SDS011;4306;50.210;10.628;2023-08-07T03:23:51;2.05;;;0.55;;
8536;SDS011;4306;50.210;10.628;2023-08-07T03:26:18;0.77;;;0.50;;
8536;SDS011;4306;50.210;10.628;2023-08-07T03:28:45;0.52;;;0.47;;
8536;SDS011;4306;50.210;10.628;2023-08-07T03:31:13;0.60;;;0.60;;
8536;SDS011;4306;50.210;10.628;2023-08-07T03:33:41;0.68;;;0.55;;
8536;SDS011;4306;50.210;10.628;2023-08-07T03:36:07;1.25;;;0.60;;
8536;SDS011;4306;50.210;10.628;2023-08-07T03:38:36;2.35;;;0.63;;
8536;SDS011;4306;50.210;10.628;2023-08-07T03:41:03;0.70;;;0.50;;
8536;SDS011;4306;50.210;10.628;2023-08-07T03:43:30;0.60;;;0.60;;
8536;SDS011;4306;50.210;10.628;2023-08-07T03:45:57;0.73;;;0.50;;
8536;SDS011;4306;50.210;10.628;2023-08-07T03:48:24;1.95;;;0.45;;
8536;SDS011;4306;50.210;10.628;2023-08-07T03:50:50;0.63;;;0.52;;
8536;SDS011;4306;50.210;10.628;2023-08-07T03:53:17;1.08;;;0.65;;
8536;SDS011;4306;50.210;10.628;2023-08-07T03:55:50;0.50;;;0.50;;
8536;SDS011;4306;50.210;10.628;2023-08-07T03:58:17;0.60;;;0.60;;
8536;SDS011;4306;50.210;10.628;2023-08-07T04:00:44;0.80;;;0.57;;
8536;SDS011;4306;50.210;10.628;2023-08-07T04:03:11;0.75;;;0.50;;
8536;SDS011;4306;50.210;10.628;2023-08-07T04:05:37;0.80;;;0.60;;
8536;SDS011;4306;50.210;10.628;2023-08-07T04:08:04;0.50;;;0.50;;
8536;SDS011;4306;50.210;10.628;2023-08-07T04:10:31;0.60;;;0.43;;
8536;SDS011;4306;50.210;10.628;2023-08-07T04:12:59;0.45;;;0.43;;
8536;SDS011;4306;50.210;10.628;2023-08-07T04:15:26;1.60;;;0.40;;
8536;SDS011;4306;50.210;10.628;2023-08-07T04:17:53;2.92;;;0.50;;
8536;SDS011;4306;50.210;10.628;2023-08-07T04:20:20;0.43;;;0.43;;
8536;SDS011;4306;50.210;10.628;2023-08-07T04:22:47;0.50;;;0.50;;
8536;SDS011;4306;50.210;10.628;2023-08-07T04:25:14;0.40;;;0.40;;
8536;SDS011;4306;50.210;10.628;2023-08-07T04:27:41;4.03;;;0.60;;
8536;SDS011;4306;50.210;10.628;2023-08-07T04:30:10;0.65;;;0.50;;
8536;SDS011;4306;50.210;10.628;2023-08-07T04:32:37;0.40;;;0.40;;
8536;SDS011;4306;50.210;10.628;2023-08-07T04:35:04;1.20;;;0.60;;
8536;SDS011;4306;50.210;10.628;2023-08-07T04:37:32;0.43;;;0.43;;
8536;SDS011;4306;50.210;10.628;2023-08-07T04:39:59;0.98;;;0.50;;
8536;SDS011;4306;50.210;10.628;2023-08-07T04:42:26;0.70;;;0.50;;
8536;SDS011;4306;50.210;10.628;2023-08-07T04:44:53;0.43;;;0.43;;
8536;SDS011;4306;50.210;10.628;2023-08-07T04:47:21;0.40;;;0.40;;
8536;SDS011;4306;50.210;10.628;2023-08-07T04:49:48;0.45;;;0.45;;
8536;SDS011;4306;50.210;10.628;2023-08-07T04:52:15;0.57;;;0.40;;
8536;SDS011;4306;50.210;10.628;2023-08-07T04:54:42;2.08;;;0.70;;
8536;SDS011;4306;50.210;10.628;2023-08-07T04:57:09;1.95;;;0.70;;
8536;SDS011;4306;50.210;10.628;2023-08-07T04:59:35;0.65;;;0.60;;
8536;SDS011;4306;50.210;10.628;2023-08-07T05:02:02;0.95;;;0.73;;
8536;SDS011;4306;50.210;10.628;2023-08-07T05:04:31;0.50;;;0.50;;
8536;SDS011;4306;50.210;10.628;2023-08-07T05:06:58;0.93;;;0.70;;
8536;SDS011;4306;50.210;10.628;2023-08-07T05:09:24;1.08;;;0.60;;
8536;SDS011;4306;50.210;10.628;2023-08-07T05:11:51;1.70;;;0.70;;
8536;SDS011;4306;50.210;10.628;2023-08-07T05:14:18;0.90;;;0.60;;
8536;SDS011;4306;50.210;10.628;2023-08-07T05:16:45;0.98;;;0.60;;
8536;SDS011;4306;50.210;10.628;2023-08-07T05:19:12;1.00;;;0.40;;
8536;SDS011;4306;50.210;10.628;2023-08-07T05:21:40;0.50;;;0.40;;
8536;SDS011;4306;50.210;10.628;2023-08-07T05:24:07;0.65;;;0.40;;
8536;SDS011;4306;50.210;10.628;2023-08-07T05:26:34;5.15;;;0.73;;
8536;SDS011;4306;50.210;10.628;2023-08-07T05:29:01;0.30;;;0.30;;
8536;SDS011;4306;50.210;10.628;2023-08-07T05:31:29;0.40;;;0.40;;
8536;SDS011;4306;50.210;10.628;2023-08-07T05:33:55;0.98;;;0.47;;
8536;SDS011;4306;50.210;10.628;2023-08-07T05:36:22;0.40;;;0.40;;
8536;SDS011;4306;50.210;10.628;2023-08-07T05:38:50;0.73;;;0.38;;
8536;SDS011;4306;50.210;10.628;2023-08-07T05:41:17;0.40;;;0.40;;
8536;SDS011;4306;50.210;10.628;2023-08-07T05:43:45;0.47;;;0.40;;
8536;SDS011;4306;50.210;10.628;2023-08-07T05:46:12;1.70;;;0.40;;
8536;SDS011;4306;50.210;10.628;2023-08-07T05:48:39;0.30;;;0.22;;
8536;SDS011;4306;50.210;10.628;2023-08-07T05:51:05;0.55;;;0.50;;
8536;SDS011;4306;50.210;10.628;2023-08-07T05:53:34;1.58;;;0.50;;
8536;SDS011;4306;50.210;10.628;2023-08-07T05:56:03;0.77;;;0.45;;
8536;SDS011;4306;50.210;10.628;2023-08-07T05:58:30;0.73;;;0.45;;
8536;SDS011;4306;50.210;10.628;2023-08-07T06:00:56;0.55;;;0.55;;
8536;SDS011;4306;50.210;10.628;2023-08-07T06:03:23;0.60;;;0.60;;
8536;SDS011;4306;50.210;10.628;2023-08-07T06:05:50;0.93;;;0.73;;
8536;SDS011;4306;50.210;10.628;2023-08-07T06:08:17;1.33;;;0.70;;
8536;SDS011;4306;50.210;10.628;2023-08-07T06:10:44;1.40;;;0.70;;
8536;SDS011;4306;50.210;10.628;2023-08-07T06:13:12;0.93;;;0.63;;
8536;SDS011;4306;50.210;10.628;2023-08-07T06:15:39;7.03;;;0.68;;
8536;SDS011;4306;50.210;10.628;2023-08-07T06:18:06;1.40;;;0.50;;
8536;SDS011;4306;50.210;10.628;2023-08-07T06:20:33;0.70;;;0.70;;
8536;SDS011;4306;50.210;10.628;2023-08-07T06:23:00;0.75;;;0.60;;
8536;SDS011;4306;50.210;10.628;2023-08-07T06:25:27;0.82;;;0.63;;
8536;SDS011;4306;50.210;10.628;2023-08-07T06:27:54;1.20;;;0.70;;
8536;SDS011;4306;50.210;10.628;2023-08-07T06:30:22;0.73;;;0.60;;
8536;SDS011;4306;50.210;10.628;2023-08-07T06:32:49;0.40;;;0.40;;
8536;SDS011;4306;50.210;10.628;2023-08-07T06:35:16;0.65;;;0.50;;
8536;SDS011;4306;50.210;10.628;2023-08-07T06:37:43;0.50;;;0.50;;
8536;SDS011;4306;50.210;10.628;2023-08-07T06:40:10;1.77;;;0.65;;
8536;SDS011;4306;50.210;10.628;2023-08-07T06:42:37;1.17;;;0.40;;
8536;SDS011;4306;50.210;10.628;2023-08-07T06:45:05;0.98;;;0.93;;
8536;SDS011;4306;50.210;10.628;2023-08-07T06:47:34;0.60;;;0.60;;
8536;SDS011;4306;50.210;10.628;2023-08-07T06:50:00;2.10;;;1.15;;
8536;SDS011;4306;50.210;10.628;2023-08-07T06:52:27;0.43;;;0.43;;
8536;SDS011;4306;50.210;10.628;2023-08-07T06:54:54;0.50;;;0.50;;
8536;SDS011;4306;50.210;10.628;2023-08-07T06:57:21;1.00;;;0.52;;
8536;SDS011;4306;50.210;10.628;2023-08-07T06:59:48;1.77;;;0.70;;
8536;SDS011;4306;50.210;10.628;2023-08-07T07:02:15;1.98;;;0.70;;
8536;SDS011;4306;50.210;10.628;2023-08-07T07:04:43;1.33;;;0.93;;
8536;SDS011;4306;50.210;10.628;2023-08-07T07:07:10;1.90;;;0.77;;
8536;SDS011;4306;50.210;10.628;2023-08-07T07:09:37;1.33;;;0.88;;
8536;SDS011;4306;50.210;10.628;2023-08-07T07:12:04;0.60;;;0.60;;
8536;SDS011;4306;50.210;10.628;2023-08-07T07:14:32;0.82;;;0.50;;
8536;SDS011;4306;50.210;10.628;2023-08-07T07:16:59;0.75;;;0.57;;
8536;SDS011;4306;50.210;10.628;2023-08-07T07:19:26;1.05;;;0.60;;
8536;SDS011;4306;50.210;10.628;2023-08-07T07:21:54;0.90;;;0.60;;
8536;SDS011;4306;50.210;10.628;2023-08-07T07:24:21;2.40;;;0.60;;
8536;SDS011;4306;50.210;10.628;2023-08-07T07:26:48;0.73;;;0.50;;
8536;SDS011;4306;50.210;10.628;2023-08-07T07:29:16;1.35;;;0.60;;
8536;SDS011;4306;50.210;10.628;2023-08-07T07:31:43;0.90;;;0.73;;
8536;SDS011;4306;50.210;10.628;2023-08-07T07:34:10;1.95;;;0.70;;
8536;SDS011;4306;50.210;10.628;2023-08-07T07:36:37;1.67;;;0.90;;
8536;SDS011;4306;50.210;10.628;2023-08-07T07:39:05;1.17;;;0.60;;
8536;SDS011;4306;50.210;10.628;2023-08-07T07:41:32;1.73;;;0.80;;
8536;SDS011;4306;50.210;10.628;2023-08-07T07:43:59;1.30;;;0.80;;
8536;SDS011;4306;50.210;10.628;2023-08-07T07:46:27;1.92;;;0.95;;
8536;SDS011;4306;50.210;10.628;2023-08-07T07:48:54;2.28;;;1.20;;
8536;SDS011;4306;50.210;10.628;2023-08-07T07:51:21;2.13;;;1.00;;
8536;SDS011;4306;50.210;10.628;2023-08-07T07:53:48;3.03;;;1.20;;
8536;SDS011;4306;50.210;10.628;2023-08-07T07:56:16;2.38;;;1.20;;
8536;SDS011;4306;50.210;10.628;2023-08-07T07:58:43;1.98;;;0.90;;
8536;SDS011;4306;50.210;10.628;2023-08-07T08:01:10;1.85;;;1.10;;
8536;SDS011;4306;50.210;10.628;2023-08-07T08:03:37;1.05;;;0.90;;
8536;SDS011;4306;50.210;10.628;2023-08-07T08:06:04;2.58;;;1.15;;
8536;SDS011;4306;50.210;10.628;2023-08-07T08:08:31;2.55;;;1.00;;
8536;SDS011;4306;50.210;10.628;2023-08-07T08:10:58;1.65;;;1.00;;
8536;SDS011;4306;50.210;10.628;2023-08-07T08:13:26;1.90;;;0.93;;
8536;SDS011;4306;50.210;10.628;2023-08-07T08:15:53;1.65;;;0.98;;
8536;SDS011;4306;50.210;10.628;2023-08-07T08:18:20;1.58;;;1.08;;
8536;SDS011;4306;50.210;10.628;2023-08-07T08:20:47;1.83;;;1.10;;
8536;SDS011;4306;50.210;10.628;2023-08-07T08:23:14;2.17;;;1.20;;
8536;SDS011;4306;50.210;10.628;2023-08-07T08:25:41;1.83;;;1.08;;
8536;SDS011;4306;50.210;10.628;2023-08-07T08:28:08;1.80;;;1.33;;
8536;SDS011;4306;50.210;10.628;2023-08-07T08:30:36;2.63;;;1.20;;
8536;SDS011;4306;50.210;10.628;2023-08-07T08:33:03;1.45;;;1.05;;
8536;SDS011;4306;50.210;10.628;2023-08-07T08:35:30;2.22;;;1.30;;
8536;SDS011;4306;50.210;10.628;2023-08-07T08:37:57;2.70;;;1.20;;
8536;SDS011;4306;50.210;10.628;2023-08-07T08:40:24;1.58;;;1.10;;
8536;SDS011;4306;50.210;10.628;2023-08-07T08:42:51;3.13;;;1.40;;
8536;SDS011;4306;50.210;10.628;2023-08-07T08:45:21;2.67;;;1.17;;
8536;SDS011;4306;50.210;10.628;2023-08-07T08:47:49;4.72;;;1.17;;
8536;SDS011;4306;50.210;10.628;2023-08-07T08:50:19;2.40;;;1.30;;
8536;SDS011;4306;50.210;10.628;2023-08-07T08:52:47;1.58;;;1.00;;
8536;SDS011;4306;50.210;10.628;2023-08-07T08:55:17;2.75;;;1.17;;
8536;SDS011;4306;50.210;10.628;2023-08-07T08:57:46;2.78;;;1.30;;
8536;SDS011;4306;50.210;10.628;2023-08-07T09:00:14;2.45;;;1.40;;
8536;SDS011;4306;50.210;10.628;2023-08-07T09:02:43;2.92;;;1.20;;
8536;SDS011;4306;50.210;10.628;2023-08-07T09:05:13;1.58;;;0.80;;
8536;SDS011;4306;50.210;10.628;2023-08-07T09:07:41;1.40;;;0.90;;
8536;SDS011;4306;50.210;10.628;2023-08-07T09:10:08;2.20;;;1.17;;
8536;SDS011;4306;50.210;10.628;2023-08-07T09:12:36;1.98;;;0.90;;
8536;SDS011;4306;50.210;10.628;2023-08-07T09:15:07;2.05;;;1.00;;
8536;SDS011;4306;50.210;10.628;2023-08-07T09:17:38;1.42;;;1.13;;
8536;SDS011;4306;50.210;10.628;2023-08-07T09:20:07;1.50;;;1.23;;
8536;SDS011;4306;50.210;10.628;2023-08-07T09:22:38;2.15;;;1.00;;
8536;SDS011;4306;50.210;10.628;2023-08-07T09:25:06;2.00;;;1.20;;
8536;SDS011;4306;50.210;10.628;2023-08-07T09:27:34;1.77;;;1.08;;
8536;SDS011;4306;50.210;10.628;2023-08-07T09:30:03;3.00;;;1.75;;
8536;SDS011;4306;50.210;10.628;2023-08-07T09:32:32;1.65;;;0.98;;
8536;SDS011;4306;50.210;10.628;2023-08-07T09:35:01;2.47;;;2.28;;
8536;SDS011;4306;50.210;10.628;2023-08-07T09:37:29;2.28;;;1.30;;
8536;SDS011;4306;50.210;10.628;2023-08-07T09:39:57;2.55;;;1.40;;
8536;SDS011;4306;50.210;10.628;2023-08-07T09:42:28;1.38;;;1.17;;
8536;SDS011;4306;50.210;10.628;2023-08-07T09:44:59;3.28;;;1.20;;
8536;SDS011;4306;50.210;10.628;2023-08-07T09:47:26;4.22;;;1.00;;
8536;SDS011;4306;50.210;10.628;2023-08-07T09:49:55;1.88;;;1.17;;
8536;SDS011;4306;50.210;10.628;2023-08-07T09:52:22;3.60;;;1.17;;
8536;SDS011;4306;50.210;10.628;2023-08-07T09:54:55;2.65;;;1.02;;
8536;SDS011;4306;50.210;10.628;2023-08-07T09:57:24;1.52;;;1.02;;
8536;SDS011;4306;50.210;10.628;2023-08-07T09:59:51;4.13;;;1.65;;
8536;SDS011;4306;50.210;10.628;2023-08-07T10:02:18;2.03;;;1.25;;
8536;SDS011;4306;50.210;10.628;2023-08-07T10:04:47;4.03;;;1.65;;
8536;SDS011;4306;50.210;10.628;2023-08-07T10:07:14;2.60;;;1.20;;
8536;SDS011;4306;50.210;10.628;2023-08-07T10:09:42;2.95;;;1.33;;
8536;SDS011;4306;50.210;10.628;2023-08-07T10:12:11;2.53;;;1.52;;
8536;SDS011;4306;50.210;10.628;2023-08-07T10:14:39;2.30;;;1.27;;
8536;SDS011;4306;50.210;10.628;2023-08-07T10:17:07;3.88;;;1.60;;
8536;SDS011;4306;50.210;10.628;2023-08-07T10:19:35;2.35;;;1.33;;
8536;SDS011;4306;50.210;10.628;2023-08-07T10:22:04;1.63;;;1.10;;
8536;SDS011;4306;50.210;10.628;2023-08-07T10:24:33;2.40;;;1.58;;
8536;SDS011;4306;50.210;10.628;2023-08-07T10:27:03;2.85;;;1.80;;
8536;SDS011;4306;50.210;10.628;2023-08-07T10:29:32;2.70;;;1.48;;
8536;SDS011;4306;50.210;10.628;2023-08-07T10:32:01;2.20;;;1.40;;
8536;SDS011;4306;50.210;10.628;2023-08-07T10:34:29;2.30;;;1.27;;
8536;SDS011;4306;50.210;10.628;2023-08-07T10:36:56;2.40;;;1.40;;
8536;SDS011;4306;50.210;10.628;2023-08-07T10:39:23;1.48;;;1.02;;
8536;SDS011;4306;50.210;10.628;2023-08-07T10:41:52;0.93;;;0.77;;
8536;SDS011;4306;50.210;10.628;2023-08-07T10:44:21;2.45;;;1.10;;
8536;SDS011;4306;50.210;10.628;2023-08-07T10:46:51;1.00;;;0.80;;
8536;SDS011;4306;50.210;10.628;2023-08-07T10:49:32;1.77;;;1.13;;
8536;SDS011;4306;50.210;10.628;2023-08-07T10:52:11;1.48;;;1.10;;
8536;SDS011;4306;50.210;10.628;2023-08-07T10:54:40;4.57;;;1.10;;
8536;SDS011;4306;50.210;10.628;2023-08-07T10:57:11;2.50;;;1.27;;
8536;SDS011;4306;50.210;10.628;2023-08-07T10:59:43;2.92;;;1.20;;
8536;SDS011;4306;50.210;10.628;2023-08-07T11:02:12;1.65;;;0.98;;
8536;SDS011;4306;50.210;10.628;2023-08-07T11:04:49;3.28;;;1.23;;
8536;SDS011;4306;50.210;10.628;2023-08-07T11:07:22;3.65;;;1.08;;
8536;SDS011;4306;50.210;10.628;2023-08-07T11:09:49;1.60;;;1.00;;
8536;SDS011;4306;50.210;10.628;2023-08-07T11:12:16;2.78;;;1.20;;
8536;SDS011;4306;50.210;10.628;2023-08-07T11:14:43;2.40;;;1.27;;
8536;SDS011;4306;50.210;10.628;2023-08-07T11:17:10;1.73;;;1.00;;
8536;SDS011;4306;50.210;10.628;2023-08-07T11:19:39;3.17;;;1.50;;
8536;SDS011;4306;50.210;10.628;2023-08-07T11:22:06;3.65;;;1.60;;
8536;SDS011;4306;50.210;10.628;2023-08-07T11:24:33;3.78;;;1.63;;
8536;SDS011;4306;50.210;10.628;2023-08-07T11:27:00;3.47;;;1.63;;
8536;SDS011;4306;50.210;10.628;2023-08-07T11:29:27;1.50;;;1.08;;
8536;SDS011;4306;50.210;10.628;2023-08-07T11:31:56;3.53;;;1.27;;
8536;SDS011;4306;50.210;10.628;2023-08-07T11:34:24;1.17;;;0.88;;
8536;SDS011;4306;50.210;10.628;2023-08-07T11:36:51;1.63;;;0.90;;
8536;SDS011;4306;50.210;10.628;2023-08-07T11:39:20;1.73;;;1.00;;
8536;SDS011;4306;50.210;10.628;2023-08-07T11:41:47;1.83;;;0.75;;
8536;SDS011;4306;50.210;10.628;2023-08-07T11:44:17;1.52;;;0.95;;
8536;SDS011;4306;50.210;10.628;2023-08-07T11:46:44;2.95;;;0.80;;
8536;SDS011;4306;50.210;10.628;2023-08-07T11:49:11;1.38;;;1.27;;
8536;SDS011;4306;50.210;10.628;2023-08-07T11:51:40;1.42;;;0.80;;
8536;SDS011;4306;50.210;10.628;2023-08-07T11:54:07;1.77;;;1.08;;
8536;SDS011;4306;50.210;10.628;2023-08-07T11:56:40;1.92;;;1.25;;
8536;SDS011;4306;50.210;10.628;2023-08-07T11:59:08;2.20;;;1.00;;
8536;SDS011;4306;50.210;10.628;2023-08-07T12:01:37;0.70;;;0.70;;
8536;SDS011;4306;50.210;10.628;2023-08-07T12:04:08;1.30;;;0.90;;
8536;SDS011;4306;50.210;10.628;2023-08-07T12:06:36;1.75;;;1.00;;
8536;SDS011;4306;50.210;10.628;2023-08-07T12:09:06;1.80;;;1.10;;
8536;SDS011;4306;50.210;10.628;2023-08-07T12:11:37;2.13;;;1.13;;
8536;SDS011;4306;50.210;10.628;2023-08-07T12:14:04;2.85;;;1.10;;
8536;SDS011;4306;50.210;10.628;2023-08-07T12:16:32;1.30;;;0.98;;
8536;SDS011;4306;50.210;10.628;2023-08-07T12:18:59;2.90;;;1.33;;
8536;SDS011;4306;50.210;10.628;2023-08-07T12:21:26;1.45;;;0.90;;
8536;SDS011;4306;50.210;10.628;2023-08-07T12:23:54;1.25;;;0.80;;
8536;SDS011;4306;50.210;10.628;2023-08-07T12:26:23;3.05;;;1.42;;
8536;SDS011;4306;50.210;10.628;2023-08-07T12:28:50;3.53;;;1.17;;
8536;SDS011;4306;50.210;10.628;2023-08-07T12:31:18;3.85;;;1.20;;
8536;SDS011;4306;50.210;10.628;2023-08-07T12:33:45;2.90;;;1.27;;
8536;SDS011;4306;50.210;10.628;2023-08-07T12:36:12;1.80;;;1.30;;
8536;SDS011;4306;50.210;10.628;2023-08-07T12:38:39;2.35;;;1.33;;
8536;SDS011;4306;50.210;10.628;2023-08-07T12:41:06;2.88;;;1.45;;
8536;SDS011;4306;50.210;10.628;2023-08-07T12:43:35;1.55;;;1.02;;
8536;SDS011;4306;50.210;10.628;2023-08-07T12:46:01;2.47;;;1.50;;
8536;SDS011;4306;50.210;10.628;2023-08-07T12:48:28;3.25;;;1.48;;
8536;SDS011;4306;50.210;10.628;2023-08-07T12:50:55;2.63;;;1.50;;
8536;SDS011;4306;50.210;10.628;2023-08-07T12:53:22;2.30;;;1.50;;
8536;SDS011;4306;50.210;10.628;2023-08-07T12:55:49;2.50;;;1.40;;
8536;SDS011;4306;50.210;10.628;2023-08-07T12:58:16;1.90;;;1.20;;
8536;SDS011;4306;50.210;10.628;2023-08-07T13:00:47;2.58;;;1.38;;
8536;SDS011;4306;50.210;10.628;2023-08-07T13:03:13;3.35;;;1.48;;
8536;SDS011;4306;50.210;10.628;2023-08-07T13:05:40;2.15;;;1.50;;
8536;SDS011;4306;50.210;10.628;2023-08-07T13:08:07;2.67;;;1.80;;
8536;SDS011;4306;50.210;10.628;2023-08-07T13:10:35;2.67;;;1.70;;
8536;SDS011;4306;50.210;10.628;2023-08-07T13:13:01;5.22;;;2.80;;
8536;SDS011;4306;50.210;10.628;2023-08-07T13:15:30;4.03;;;2.53;;
8536;SDS011;4306;50.210;10.628;2023-08-07T13:17:58;3.83;;;2.35;;
8536;SDS011;4306;50.210;10.628;2023-08-07T13:20:25;3.13;;;2.45;;
8536;SDS011;4306;50.210;10.628;2023-08-07T13:22:52;2.92;;;1.63;;
8536;SDS011;4306;50.210;10.628;2023-08-07T13:25:19;4.35;;;2.28;;
8536;SDS011;4306;50.210;10.628;2023-08-07T13:27:46;3.92;;;2.47;;
8536;SDS011;4306;50.210;10.628;2023-08-07T13:30:13;2.83;;;1.90;;
8536;SDS011;4306;50.210;10.628;2023-08-07T13:32:40;4.68;;;1.95;;
8536;SDS011;4306;50.210;10.628;2023-08-07T13:35:08;4.20;;;2.50;;
8536;SDS011;4306;50.210;10.628;2023-08-07T13:37:35;3.53;;;1.40;;
8536;SDS011;4306;50.210;10.628;2023-08-07T13:40:03;2.92;;;1.65;;
8536;SDS011;4306;50.210;10.628;2023-08-07T13:42:31;2.05;;;1.50;;
8536;SDS011;4306;50.210;10.628;2023-08-07T13:44:58;4.93;;;1.88;;
8536;SDS011;4306;50.210;10.628;2023-08-07T13:47:25;5.22;;;2.20;;
8536;SDS011;4306;50.210;10.628;2023-08-07T13:49:52;3.83;;;2.13;;
8536;SDS011;4306;50.210;10.628;2023-08-07T13:52:21;3.95;;;1.80;;
8536;SDS011;4306;50.210;10.628;2023-08-07T13:54:48;3.40;;;2.10;;
8536;SDS011;4306;50.210;10.628;2023-08-07T13:57:16;4.13;;;1.83;;
8536;SDS011;4306;50.210;10.628;2023-08-07T13:59:43;3.72;;;2.60;;
8536;SDS011;4306;50.210;10.628;2023-08-07T14:02:10;6.20;;;2.63;;
8536;SDS011;4306;50.210;10.628;2023-08-07T14:04:37;2.53;;;1.48;;
8536;SDS011;4306;50.210;10.628;2023-08-07T14:07:04;4.22;;;1.70;;
8536;SDS011;4306;50.210;10.628;2023-08-07T14:09:33;2.63;;;1.55;;
8536;SDS011;4306;50.210;10.628;2023-08-07T14:11:59;3.20;;;1.27;;
8536;SDS011;4306;50.210;10.628;2023-08-07T14:14:26;2.63;;;1.50;;
8536;SDS011;4306;50.210;10.628;2023-08-07T14:16:53;3.05;;;1.85;;
8536;SDS011;4306;50.210;10.628;2023-08-07T14:19:22;4.10;;;1.40;;
8536;SDS011;4306;50.210;10.628;2023-08-07T14:21:49;2.30;;;1.80;;
8536;SDS011;4306;50.210;10.628;2023-08-07T14:24:16;3.75;;;1.83;;
8536;SDS011;4306;50.210;10.628;2023-08-07T14:26:44;4.35;;;1.90;;
8536;SDS011;4306;50.210;10.628;2023-08-07T14:29:12;5.13;;;2.25;;
8536;SDS011;4306;50.210;10.628;2023-08-07T14:31:39;4.40;;;2.10;;
8536;SDS011;4306;50.210;10.628;2023-08-07T14:34:06;4.00;;;2.78;;
8536;SDS011;4306;50.210;10.628;2023-08-07T14:36:33;4.65;;;2.97;;
8536;SDS011;4306;50.210;10.628;2023-08-07T14:39:00;3.50;;;1.95;;
8536;SDS011;4306;50.210;10.628;2023-08-07T14:41:27;2.70;;;1.52;;
8536;SDS011;4306;50.210;10.628;2023-08-07T14:43:55;3.85;;;1.85;;
8536;SDS011;4306;50.210;10.628;2023-08-07T14:46:22;3.88;;;2.10;;
8536;SDS011;4306;50.210;10.628;2023-08-07T14:48:49;3.45;;;1.58;;
8536;SDS011;4306;50.210;10.628;2023-08-07T14:51:16;3.92;;;1.85;;
8536;SDS011;4306;50.210;10.628;2023-08-07T14:53:43;2.80;;;1.83;;
8536;SDS011;4306;50.210;10.628;2023-08-07T14:56:10;2.58;;;1.52;;
8536;SDS011;4306;50.210;10.628;2023-08-07T14:58:37;3.25;;;2.13;;
8536;SDS011;4306;50.210;10.628;2023-08-07T15:01:05;3.85;;;2.15;;
8536;SDS011;4306;50.210;10.628;2023-08-07T15:03:32;3.75;;;2.20;;